Terminal Aerodrome Forecast
Issued by NWS Buffalo, NY

Home | Current Version | Previous Version | Text Only | Print | Product List | Glossary On
Versions: 1 2 3 4 5 6 7 8 9 10 11 12 13 14 15 16 17 18 19 20 21 22 23 24 25 26
000
FTUS41 KBUF 282145 AAA
TAFART
TAF AMD
KART 282145Z 2822/2918 02012KT P6SM SCT120 OVC220
     FM290200 05006KT P6SM SCT120 OVC200
     FM291400 03010KT P6SM SCT120 BKN200=

USA.gov is the U.S. government's official web portal to all federal, state and local government web resources and services.